createdAt,value
2018-06-14T00:00:26.703Z,3.83
2018-06-14T00:02:55.708Z,3.70
2018-06-14T00:05:24.764Z,4.50
2018-06-14T00:08:00.766Z,3.62
2018-06-14T00:10:30.671Z,3.62
2018-06-14T00:12:59.388Z,3.45
2018-06-14T00:15:28.064Z,3.83
2018-06-14T00:17:56.801Z,3.53
2018-06-14T00:20:25.452Z,4.22
2018-06-14T00:22:54.176Z,4.28
2018-06-14T00:25:22.928Z,3.87
2018-06-14T00:27:51.718Z,3.60
2018-06-14T00:30:20.800Z,3.70
2018-06-14T00:32:49.801Z,3.30
2018-06-14T00:35:18.905Z,3.83
2018-06-14T00:37:47.781Z,4.10
2018-06-14T00:40:16.978Z,4.10
2018-06-14T00:42:45.572Z,3.47
2018-06-14T00:45:13.691Z,3.70
2018-06-14T00:47:42.147Z,3.50
2018-06-14T00:50:10.887Z,3.78
2018-06-14T00:52:39.622Z,3.80
2018-06-14T00:55:09.773Z,4.20
2018-06-14T00:57:38.466Z,3.70
2018-06-14T01:00:07.181Z,3.67
2018-06-14T01:02:36.189Z,3.87
2018-06-14T01:05:04.993Z,3.78
2018-06-14T01:07:33.769Z,4.03
2018-06-14T01:10:02.642Z,3.78
2018-06-14T01:12:31.513Z,3.78
2018-06-14T01:15:00.287Z,4.30
2018-06-14T01:17:29.205Z,4.32
2018-06-14T01:19:58.079Z,3.50
2018-06-14T01:22:27.426Z,3.87
2018-06-14T01:24:56.278Z,4.03
2018-06-14T01:27:25.196Z,3.97
2018-06-14T01:29:54.574Z,3.87
2018-06-14T01:32:23.392Z,3.80
2018-06-14T01:34:52.383Z,3.80
2018-06-14T01:37:21.326Z,4.03
2018-06-14T01:39:50.209Z,4.00
2018-06-14T01:42:19.104Z,3.87
2018-06-14T01:44:48.151Z,4.00
2018-06-14T01:47:25.763Z,4.75
2018-06-14T01:49:56.867Z,5.20
2018-06-14T01:52:28.257Z,4.13
2018-06-14T01:54:58.117Z,5.22
2018-06-14T01:57:27.998Z,5.05
2018-06-14T02:00:00.554Z,4.18
2018-06-14T02:02:34.258Z,4.07
2018-06-14T02:05:11.715Z,4.00
2018-06-14T02:07:42.358Z,4.78
2018-06-14T02:10:15.033Z,4.45
2018-06-14T02:12:51.865Z,3.78
2018-06-14T02:15:22.862Z,3.55
2018-06-14T02:17:57.443Z,4.37
2018-06-14T02:20:29.063Z,5.07
2018-06-14T02:23:14.728Z,3.58
2018-06-14T02:25:48.583Z,3.67
2018-06-14T02:28:20.937Z,3.90
2018-06-14T02:30:55.003Z,4.47
2018-06-14T02:33:24.982Z,4.18
2018-06-14T02:36:11.900Z,3.62
2018-06-14T02:38:40.527Z,4.03
2018-06-14T02:41:09.283Z,3.72
2018-06-14T02:43:38.085Z,3.67
2018-06-14T02:46:07.851Z,3.90
2018-06-14T02:48:36.618Z,4.28
2018-06-14T02:51:05.346Z,4.23
2018-06-14T02:53:34.197Z,4.67
2018-06-14T02:56:03.180Z,4.75
2018-06-14T02:58:31.925Z,4.37
2018-06-14T03:01:00.794Z,4.70
2018-06-14T03:03:29.499Z,4.20
2018-06-14T03:05:58.293Z,4.47
2018-06-14T03:08:27.320Z,4.47
2018-06-14T03:10:56.179Z,4.13
2018-06-14T03:13:25.032Z,4.17
2018-06-14T03:15:53.907Z,4.53
2018-06-14T03:18:22.592Z,4.60
2018-06-14T03:20:52.322Z,4.70
2018-06-14T03:23:21.177Z,4.50
2018-06-14T03:25:49.946Z,4.33
2018-06-14T03:28:19.068Z,4.83
2018-06-14T03:30:50.789Z,4.50
2018-06-14T03:33:19.540Z,4.80
2018-06-14T03:35:49.835Z,4.53
2018-06-14T03:38:18.978Z,5.10
2018-06-14T03:40:51.048Z,5.40
2018-06-14T03:43:20.252Z,4.50
2018-06-14T03:45:51.294Z,4.10
2018-06-14T03:48:20.425Z,5.10
2018-06-14T03:50:50.313Z,5.07
2018-06-14T03:53:20.202Z,5.25
2018-06-14T03:55:49.258Z,5.35
2018-06-14T03:58:18.638Z,4.53
2018-06-14T04:00:50.252Z,5.07
2018-06-14T04:03:25.745Z,4.00
2018-06-14T04:05:56.168Z,4.90
2018-06-14T04:08:25.725Z,5.78
2018-06-14T04:11:07.809Z,4.87
2018-06-14T04:13:38.187Z,4.90
2018-06-14T04:16:08.364Z,5.70
2018-06-14T04:18:38.858Z,4.90
2018-06-14T04:21:14.178Z,5.12
2018-06-14T04:26:34.204Z,5.40
2018-06-14T04:29:04.229Z,5.07
2018-06-14T04:31:35.528Z,4.95
2018-06-14T04:34:04.572Z,4.55
2018-06-14T04:36:33.723Z,4.55
2018-06-14T04:39:02.994Z,4.30
2018-06-14T04:41:32.072Z,4.80
2018-06-14T04:49:38.063Z,4.40
2018-06-14T04:52:07.061Z,3.80
2018-06-14T04:54:36.070Z,3.78
2018-06-14T04:57:04.864Z,4.05
2018-06-14T04:59:33.629Z,4.10
2018-06-14T05:02:02.469Z,3.47
2018-06-14T05:04:31.617Z,3.08
2018-06-14T05:07:00.361Z,3.35
2018-06-14T05:09:29.559Z,3.20
2018-06-14T05:11:58.316Z,2.83
2018-06-14T05:14:27.366Z,3.22
2018-06-14T05:16:56.119Z,3.33
2018-06-14T05:19:24.932Z,3.28
2018-06-14T05:21:53.780Z,2.80
2018-06-14T05:24:22.683Z,2.90
2018-06-14T05:26:51.616Z,3.10
2018-06-14T05:29:20.444Z,3.08
2018-06-14T05:31:49.781Z,2.70
2018-06-14T05:34:20.629Z,2.67
2018-06-14T05:36:54.786Z,3.53
2018-06-14T05:39:23.536Z,3.28
2018-06-14T05:41:52.272Z,2.83
2018-06-14T05:44:21.635Z,3.40
2018-06-14T05:46:50.728Z,2.92
2018-06-14T05:49:19.903Z,3.20
2018-06-14T05:51:48.721Z,2.97
2018-06-14T05:54:17.520Z,3.22
2018-06-14T05:56:49.603Z,3.33
2018-06-14T05:59:18.467Z,2.67
2018-06-14T06:01:47.359Z,2.78
2018-06-14T06:04:16.676Z,3.20
2018-06-14T06:06:46.751Z,3.80
2018-06-14T06:09:16.098Z,3.15
2018-06-14T06:11:44.837Z,2.58
2018-06-14T06:14:14.213Z,3.05
2018-06-14T06:16:43.448Z,2.90
2018-06-14T06:19:12.126Z,3.10
2018-06-14T06:21:41.623Z,2.85
2018-06-14T06:24:10.415Z,3.40
2018-06-14T06:26:39.316Z,2.47
2018-06-14T06:29:08.113Z,2.60
2018-06-14T06:31:36.821Z,2.60
2018-06-14T06:34:05.860Z,3.17
2018-06-14T06:36:35.066Z,2.10
2018-06-14T06:39:04.029Z,2.35
2018-06-14T06:41:32.891Z,2.60
2018-06-14T06:44:01.675Z,2.55
2018-06-14T06:46:30.382Z,2.00
2018-06-14T06:48:59.362Z,2.50
2018-06-14T06:51:29.457Z,2.90
2018-06-14T06:53:59.473Z,3.28
2018-06-14T06:56:36.974Z,2.53
2018-06-14T06:59:13.568Z,2.28
2018-06-14T07:01:42.245Z,2.58
2018-06-14T07:04:11.509Z,3.55
2018-06-14T07:06:42.684Z,2.47
2018-06-14T07:09:12.097Z,2.70
2018-06-14T07:11:40.857Z,2.47
2018-06-14T07:14:10.412Z,2.60
2018-06-14T07:16:43.201Z,2.80
2018-06-14T07:19:12.048Z,2.60
2018-06-14T07:21:41.151Z,3.22
2018-06-14T07:24:10.582Z,2.72
2018-06-14T07:26:39.276Z,2.45
2018-06-14T07:29:09.411Z,2.65
2018-06-14T07:31:38.229Z,2.62
2018-06-14T07:39:50.961Z,2.60
2018-06-14T07:42:19.851Z,2.62
2018-06-14T07:44:49.481Z,2.87
2018-06-14T07:47:22.302Z,3.00
2018-06-14T07:49:51.101Z,2.45
2018-06-14T07:52:23.435Z,2.55
2018-06-14T07:54:52.767Z,2.60
2018-06-14T07:57:23.429Z,2.30
2018-06-14T07:59:55.328Z,2.37
2018-06-14T08:02:24.379Z,2.30
2018-06-14T08:04:55.624Z,2.53
2018-06-14T08:07:25.289Z,2.70
2018-06-14T08:09:57.180Z,2.50
2018-06-14T08:12:40.545Z,2.42
2018-06-14T08:15:12.465Z,2.20
2018-06-14T08:17:43.333Z,2.58
2018-06-14T08:23:11.451Z,3.08
2018-06-14T08:25:41.011Z,2.03
2018-06-14T08:28:10.893Z,2.20
2018-06-14T08:30:50.156Z,2.00
2018-06-14T08:33:22.629Z,2.20
2018-06-14T08:35:57.606Z,2.47
2018-06-14T08:38:40.590Z,2.25
2018-06-14T08:41:09.839Z,2.40
2018-06-14T08:43:38.510Z,2.03
2018-06-14T08:46:08.106Z,1.98
2018-06-14T08:48:37.653Z,2.03
2018-06-14T08:51:06.700Z,1.95
2018-06-14T08:53:35.390Z,1.77
2018-06-14T08:56:04.092Z,1.85
2018-06-14T08:58:33.513Z,1.77
2018-06-14T09:01:02.237Z,1.65
2018-06-14T09:03:36.187Z,1.70
2018-06-14T09:06:02.139Z,1.83
2018-06-14T09:08:33.302Z,1.90
2018-06-14T09:11:02.122Z,1.70
2018-06-14T09:13:31.035Z,2.00
2018-06-14T09:15:59.780Z,2.30
2018-06-14T09:18:28.535Z,2.20
2018-06-14T09:20:57.229Z,2.30
2018-06-14T09:23:26.277Z,2.12
2018-06-14T09:25:54.931Z,1.90
2018-06-14T09:28:24.104Z,2.47
2018-06-14T09:30:53.364Z,2.28
2018-06-14T09:33:22.099Z,2.37
2018-06-14T09:35:50.858Z,2.92
2018-06-14T09:38:19.713Z,2.50
2018-06-14T09:40:48.453Z,3.10
2018-06-14T09:43:17.338Z,2.53
2018-06-14T09:45:46.120Z,2.42
2018-06-14T09:48:15.171Z,3.10
2018-06-14T09:50:44.044Z,2.65
2018-06-14T09:53:14.123Z,2.20
2018-06-14T09:55:42.957Z,2.65
2018-06-14T09:58:13.259Z,2.45
2018-06-14T10:00:42.036Z,2.55
2018-06-14T10:03:11.107Z,2.30
2018-06-14T10:05:39.869Z,2.55
2018-06-14T10:08:08.617Z,2.20
2018-06-14T10:10:37.692Z,2.78
2018-06-14T10:13:07.074Z,2.20
2018-06-14T10:15:36.006Z,2.53
2018-06-14T10:18:05.296Z,2.40
2018-06-14T10:20:33.901Z,2.37
2018-06-14T10:23:02.613Z,2.25
2018-06-14T10:25:31.381Z,2.58
2018-06-14T10:28:00.337Z,2.28
2018-06-14T10:30:29.232Z,1.95
2018-06-14T10:32:57.925Z,2.10
2018-06-14T10:35:26.574Z,2.25
2018-06-14T10:37:55.679Z,2.85
2018-06-14T10:40:24.343Z,2.10
2018-06-14T10:42:53.043Z,1.95
2018-06-14T10:45:21.725Z,2.87
2018-06-14T10:50:39.279Z,2.08
2018-06-14T10:53:08.043Z,1.90
2018-06-14T10:55:37.078Z,2.30
2018-06-14T10:58:05.754Z,2.35
2018-06-14T11:00:34.435Z,1.83
2018-06-14T11:03:03.116Z,2.22
2018-06-14T11:05:31.798Z,2.03
2018-06-14T11:08:00.465Z,2.10
2018-06-14T11:10:29.516Z,2.22
2018-06-14T11:12:58.656Z,2.37
2018-06-14T11:15:27.395Z,2.33
2018-06-14T11:17:56.026Z,2.65
2018-06-14T11:20:25.145Z,2.53
2018-06-14T11:22:53.676Z,2.40
2018-06-14T11:25:22.338Z,2.20
2018-06-14T11:27:50.970Z,2.20
2018-06-14T11:30:20.153Z,1.98
2018-06-14T11:32:49.006Z,2.20
2018-06-14T11:35:17.685Z,2.20
2018-06-14T11:37:46.332Z,2.42
2018-06-14T11:40:15.645Z,2.28
2018-06-14T11:42:44.277Z,2.55
2018-06-14T11:45:12.926Z,2.40
2018-06-14T11:47:41.581Z,1.90
2018-06-14T11:50:10.258Z,2.50
2018-06-14T11:52:41.006Z,2.28
2018-06-14T11:55:09.696Z,2.37
2018-06-14T11:57:38.325Z,2.05
2018-06-14T12:00:07.030Z,2.78
2018-06-14T12:02:35.680Z,2.80
2018-06-14T12:05:04.348Z,2.70
2018-06-14T12:07:32.973Z,2.47
2018-06-14T12:10:01.637Z,2.65
2018-06-14T12:12:30.254Z,2.65
2018-06-14T12:14:58.895Z,2.10
2018-06-14T12:17:27.552Z,2.75
2018-06-14T12:19:56.167Z,3.03
2018-06-14T12:22:24.840Z,2.83
2018-06-14T12:24:53.487Z,2.78
2018-06-14T12:27:22.178Z,2.42
2018-06-14T12:29:50.819Z,1.92
2018-06-14T12:32:19.474Z,2.25
2018-06-14T12:34:48.105Z,2.33
2018-06-14T12:37:16.805Z,2.10
2018-06-14T12:39:45.427Z,1.98
2018-06-14T12:42:14.111Z,2.13
2018-06-14T12:44:43.986Z,2.12
2018-06-14T12:47:12.668Z,1.90
2018-06-14T12:49:41.538Z,1.40
2018-06-14T12:52:10.194Z,1.70
2018-06-14T12:54:38.808Z,2.12
2018-06-14T12:57:08.359Z,2.30
2018-06-14T12:59:36.973Z,1.83
2018-06-14T13:02:13.298Z,1.95
2018-06-14T13:04:41.939Z,1.58
2018-06-14T13:07:10.602Z,1.70
2018-06-14T13:09:39.587Z,1.33
2018-06-14T13:12:08.245Z,1.50
2018-06-14T13:14:37.534Z,1.95
2018-06-14T13:17:06.382Z,1.27
2018-06-14T13:19:35.030Z,1.37
2018-06-14T13:22:03.678Z,1.70
2018-06-14T13:24:32.323Z,1.70
2018-06-14T13:27:01.011Z,1.52
2018-06-14T13:29:29.651Z,1.30
2018-06-14T13:34:45.866Z,1.50
2018-06-14T13:37:15.016Z,1.60
2018-06-14T13:39:43.646Z,1.48
2018-06-14T13:42:12.315Z,1.27
2018-06-14T13:44:40.952Z,1.70
2018-06-14T13:47:09.647Z,1.77
2018-06-14T13:49:38.352Z,1.50
2018-06-14T13:52:07.047Z,1.60
2018-06-14T13:54:36.014Z,1.40
2018-06-14T13:57:04.809Z,1.77
2018-06-14T13:59:41.141Z,1.52
2018-06-14T14:02:10.288Z,1.77
2018-06-14T14:04:39.617Z,1.50
2018-06-14T14:07:08.267Z,1.52
2018-06-14T14:09:37.181Z,1.40
2018-06-14T14:12:05.812Z,1.20
2018-06-14T14:14:34.515Z,1.42
2018-06-14T14:17:03.135Z,1.30
2018-06-14T14:19:31.891Z,1.50
2018-06-14T14:22:00.552Z,1.50
2018-06-14T14:24:29.180Z,1.35
2018-06-14T14:26:57.942Z,1.23
2018-06-14T14:29:35.192Z,1.20
2018-06-14T14:32:03.802Z,1.08
2018-06-14T14:34:32.473Z,1.60
2018-06-14T14:37:01.133Z,1.33
2018-06-14T14:39:30.180Z,1.55
2018-06-14T14:41:58.864Z,1.65
2018-06-14T14:44:27.893Z,1.30
2018-06-14T14:46:57.051Z,1.20
2018-06-14T14:49:29.567Z,1.27
2018-06-14T14:52:01.817Z,1.25
2018-06-14T14:54:31.620Z,1.50
2018-06-14T14:57:00.586Z,1.42
2018-06-14T14:59:31.052Z,1.52
2018-06-14T15:01:59.951Z,1.12
2018-06-14T15:04:30.031Z,1.58
2018-06-14T15:06:59.151Z,1.50
2018-06-14T15:09:28.221Z,1.15
2018-06-14T15:11:57.210Z,1.20
2018-06-14T15:14:25.754Z,1.67
2018-06-14T15:16:54.669Z,1.20
2018-06-14T15:19:23.510Z,1.15
2018-06-14T15:21:54.463Z,1.33
2018-06-14T15:24:23.069Z,1.70
2018-06-14T15:26:51.704Z,1.30
2018-06-14T15:29:20.350Z,1.37
2018-06-14T15:31:48.988Z,1.30
2018-06-14T15:34:17.679Z,1.30
2018-06-14T15:36:46.328Z,1.50
2018-06-14T15:39:14.967Z,1.50
2018-06-14T15:41:43.634Z,1.33
2018-06-14T15:44:12.254Z,1.23
2018-06-14T15:46:40.947Z,1.25
2018-06-14T15:49:09.638Z,1.23
2018-06-14T15:51:38.394Z,1.30
2018-06-14T15:54:07.598Z,1.70
2018-06-14T16:02:11.456Z,1.45
2018-06-14T16:04:40.120Z,1.20
2018-06-14T16:09:59.466Z,1.17
2018-06-14T16:12:28.221Z,1.55
2018-06-14T16:14:56.992Z,1.50
2018-06-14T16:17:25.733Z,1.27
2018-06-14T16:19:54.552Z,1.30
2018-06-14T16:22:23.303Z,1.27
2018-06-14T16:24:51.974Z,1.33
2018-06-14T16:27:20.696Z,1.30
2018-06-14T16:29:49.478Z,1.35
2018-06-14T16:32:18.215Z,1.70
2018-06-14T16:34:46.916Z,1.50
2018-06-14T16:37:15.959Z,1.30
2018-06-14T16:39:44.606Z,1.20
2018-06-14T16:42:13.506Z,1.50
2018-06-14T16:44:42.188Z,1.10
2018-06-14T16:47:10.929Z,1.33
2018-06-14T16:49:39.603Z,1.27
2018-06-14T16:52:08.370Z,1.05
2018-06-14T16:54:37.063Z,1.40
2018-06-14T16:57:05.848Z,1.40
2018-06-14T16:59:34.557Z,1.42
2018-06-14T17:02:04.936Z,1.30
2018-06-14T17:04:33.660Z,1.30
2018-06-14T17:07:02.513Z,1.45
2018-06-14T17:09:31.552Z,1.37
2018-06-14T17:12:03.280Z,1.25
2018-06-14T17:14:32.050Z,1.55
2018-06-14T17:17:00.800Z,1.15
2018-06-14T17:19:29.540Z,1.30
2018-06-14T17:21:58.360Z,1.20
2018-06-14T17:24:27.061Z,1.20
2018-06-14T17:26:55.784Z,1.30
2018-06-14T17:29:27.604Z,1.30
2018-06-14T17:31:56.451Z,1.30
2018-06-14T17:34:25.279Z,1.12
2018-06-14T17:36:54.054Z,1.62
2018-06-14T17:39:22.796Z,1.37
2018-06-14T17:41:55.271Z,1.30
2018-06-14T17:50:03.535Z,1.30
2018-06-14T17:52:32.260Z,1.20
2018-06-14T17:55:00.947Z,1.12
2018-06-14T17:57:29.704Z,1.10
2018-06-14T17:59:58.530Z,1.30
2018-06-14T18:02:27.200Z,1.50
2018-06-14T18:04:56.055Z,1.50
2018-06-14T18:07:26.376Z,1.12
2018-06-14T18:09:56.559Z,1.30
2018-06-14T18:12:25.411Z,1.15
2018-06-14T18:14:54.389Z,1.40
2018-06-14T18:17:23.214Z,1.27
2018-06-14T18:19:52.521Z,1.30
2018-06-14T18:22:21.162Z,1.40
2018-06-14T18:24:49.916Z,1.30
2018-06-14T18:27:18.984Z,1.27
2018-06-14T18:29:47.776Z,1.10
2018-06-14T18:32:16.545Z,2.12
2018-06-14T18:34:45.404Z,1.40
2018-06-14T18:37:14.073Z,1.55
2018-06-14T18:39:42.892Z,1.40
2018-06-14T18:42:11.587Z,1.30
2018-06-14T18:44:48.611Z,1.42
2018-06-14T18:47:19.627Z,1.50
2018-06-14T18:49:49.465Z,1.40
2018-06-14T18:52:19.804Z,1.48
2018-06-14T18:54:49.157Z,1.60
2018-06-14T18:57:18.609Z,1.55
2018-06-14T18:59:47.721Z,1.75
2018-06-14T19:02:18.259Z,1.65
2018-06-14T19:04:47.550Z,1.67
2018-06-14T19:07:27.105Z,1.65
2018-06-14T19:09:56.100Z,1.60
2018-06-14T19:12:28.701Z,1.50
2018-06-14T19:14:59.986Z,1.77
2018-06-14T19:17:31.121Z,2.25
2018-06-14T19:20:00.132Z,1.70
2018-06-14T19:22:29.149Z,1.62
2018-06-14T19:24:58.522Z,1.87
2018-06-14T19:27:27.324Z,1.40
2018-06-14T19:29:57.373Z,1.92
2018-06-14T19:32:28.985Z,1.58
2018-06-14T19:34:57.838Z,1.67
2018-06-14T19:40:18.572Z,1.73
2018-06-14T19:42:47.377Z,1.62
2018-06-14T19:45:16.209Z,1.70
2018-06-14T19:47:45.305Z,2.20
2018-06-14T19:50:14.848Z,1.70
2018-06-14T19:52:43.887Z,1.90
2018-06-14T19:55:15.184Z,1.73
2018-06-14T19:57:44.208Z,2.05
2018-06-14T20:00:13.613Z,2.08
2018-06-14T20:02:42.775Z,1.90
2018-06-14T20:05:11.607Z,2.00
2018-06-14T20:07:40.403Z,1.80
2018-06-14T20:10:18.093Z,1.90
2018-06-14T20:12:48.348Z,2.15
2018-06-14T20:15:34.029Z,1.80
2018-06-14T20:18:03.380Z,1.92
2018-06-14T20:20:36.394Z,1.87
2018-06-14T20:23:11.918Z,1.98
2018-06-14T20:25:41.385Z,2.60
2018-06-14T20:28:10.859Z,1.92
2018-06-14T20:30:39.932Z,2.10
2018-06-14T20:33:10.948Z,2.40
2018-06-14T20:35:40.595Z,2.05
2018-06-14T20:38:09.632Z,2.12
2018-06-14T20:40:39.219Z,2.00
2018-06-14T20:43:08.215Z,2.15
2018-06-14T20:45:37.474Z,2.17
2018-06-14T20:48:07.283Z,2.22
2018-06-14T20:50:36.528Z,2.05
2018-06-14T20:53:06.096Z,2.55
2018-06-14T20:55:40.139Z,2.42
2018-06-14T20:58:11.395Z,2.45
2018-06-14T21:00:41.379Z,2.65
2018-06-14T21:03:10.443Z,2.87
2018-06-14T21:05:39.340Z,2.60
2018-06-14T21:08:08.897Z,2.78
2018-06-14T21:24:16.293Z,2.85
2018-06-14T21:26:49.160Z,3.00
2018-06-14T21:29:17.970Z,3.22
2018-06-14T21:31:47.368Z,3.10
2018-06-14T21:34:16.557Z,2.85
2018-06-14T21:36:45.496Z,3.30
2018-06-14T21:39:14.587Z,3.08
2018-06-14T21:41:44.105Z,3.60
2018-06-14T21:44:13.088Z,3.20
2018-06-14T21:46:42.208Z,3.50
2018-06-14T21:49:11.120Z,3.30
2018-06-14T21:51:39.937Z,2.97
2018-06-14T21:54:08.863Z,3.40
2018-06-14T21:56:37.718Z,3.40
2018-06-14T21:59:06.642Z,3.37
2018-06-14T22:01:35.411Z,3.65
2018-06-14T22:04:04.409Z,3.20
2018-06-14T22:06:33.389Z,3.73
2018-06-14T22:09:03.339Z,2.62
2018-06-14T22:11:32.318Z,3.03
2018-06-14T22:14:01.515Z,3.42
2018-06-14T22:16:30.220Z,3.50
2018-06-14T22:18:59.064Z,3.83
2018-06-14T22:21:27.807Z,3.78
2018-06-14T22:23:56.545Z,4.07
2018-06-14T22:26:25.234Z,3.37
2018-06-14T22:28:53.925Z,3.75
2018-06-14T22:31:22.575Z,3.40
2018-06-14T22:34:28.577Z,3.50
2018-06-14T22:36:57.242Z,3.70
2018-06-14T22:39:25.973Z,4.50
2018-06-14T22:41:57.567Z,3.62
2018-06-14T22:44:28.432Z,4.22
2018-06-14T22:46:57.076Z,3.58
2018-06-14T22:49:26.160Z,3.42
2018-06-14T22:51:55.547Z,3.30
2018-06-14T22:54:26.512Z,4.47
2018-06-14T22:56:59.196Z,3.72
2018-06-14T22:59:33.444Z,4.47
2018-06-14T23:02:02.142Z,5.43
2018-06-14T23:04:30.940Z,6.40
2018-06-14T23:06:59.944Z,6.23
2018-06-14T23:09:28.699Z,6.07
2018-06-14T23:11:57.435Z,5.70
2018-06-14T23:14:26.324Z,5.95
2018-06-14T23:16:55.009Z,6.90
2018-06-14T23:19:23.824Z,6.73
2018-06-14T23:21:52.501Z,6.65
2018-06-14T23:24:21.177Z,6.97
2018-06-14T23:26:49.842Z,6.10
2018-06-14T23:29:18.585Z,5.80
2018-06-14T23:31:47.181Z,6.87
2018-06-14T23:34:15.857Z,6.80
2018-06-14T23:36:44.557Z,7.72
2018-06-14T23:39:13.302Z,7.40
2018-06-14T23:41:42.554Z,7.85
2018-06-14T23:44:13.324Z,7.22
2018-06-14T23:46:43.693Z,6.90
2018-06-14T23:49:12.656Z,8.43
2018-06-14T23:51:41.326Z,7.35
2018-06-14T23:54:11.214Z,8.00
2018-06-14T23:56:39.923Z,8.25
2018-06-14T23:59:08.596Z,8.00
